METAR ET TAF INFORMATION
METAR FOR LJLJ
ADDS - METARS form results

(0657 UTC 06 February 2023)
Data provider http://aviationweather.gov/metar/data/
 
METAR text: LJLJ 060630Z 12004KT 9999 BKN026 M04/M08 Q1036 NOSIG
Conditions at: LJLJ (LJUBLJANA/BRNIK , SI) observed 0630 UTC 06 February 2023
Temperature: -4.0°C (25°F)
Dewpoint: -8.0°C (18°F) [RH = 74%]
Pressure (altimeter): 30.59 inches Hg (1036.0 mb)
Winds: from the ESE (120 degrees) at 5 MPH (4 knots; 2.1 m/s)
Visibility: 6 or more miles (10+ km)
Ceiling: 2600 feet AGL
Clouds: broken clouds at 2600 feet AGL
Weather: no significant weather observed at this time

METAR text: LJLJ 060600Z 12002KT 9999 BKN026 M04/M07 Q1036 NOSIG
Conditions at: LJLJ (LJUBLJANA/BRNIK , SI) observed 0600 UTC 06 February 2023
Temperature: -4.0°C (25°F)
Dewpoint: -7.0°C (19°F) [RH = 80%]
Pressure (altimeter): 30.59 inches Hg (1036.0 mb)
Winds: from the ESE (120 degrees) at 2 MPH (2 knots; 1.0 m/s)
Visibility: 6 or more miles (10+ km)
Ceiling: 2600 feet AGL
Clouds: broken clouds at 2600 feet AGL
Weather: no significant weather observed at this time

Forecast for: LJLJ (LJUBLJANA/BRNIK , SI)
Text: TAF LJLJ 060500Z 0606/0706 13004KT 9999 BKN030
Forecast period: 0600 UTC 06 February 2023 to 0600 UTC 07 February 2023
Forecast type: FROM: standard forecast or significant change
Winds: from the SE (130 degrees) at 5 MPH (4 knots; 2.1 m/s)
Visibility: 6 or more miles (10+ km)
Ceiling: 3000 feet AGL
Clouds: broken clouds at 3000 feet AGL
Weather: no significant weather forecast for this period

 AÉROPORT DE AÉROPORT

 INFORMATIONS DE PISTE
Piste 13 Longueur de la piste 10827 ft Largeur de la piste 148 ft
Élévation de la piste 1273 ft Seuil de la piste déplacés 0 ft Runway heading 126
Piste 31 Longueur de la piste 10827 ft Largeur de la piste 148 ft
Élévation de la piste 1191 ft Seuil de la piste déplacés 0 ft Runway heading 306

 AÉROPORT FRÉQUENCES
Type A/D Nom APP Féquence 135.275 MHZ
Type ATIS Nom also on VO Féquence 128.175 MHZ
Type GND Nom Féquence 121.625 MHZ
Type HANDLING & Nom Féquence 131.4 MHZ
Type TWR Nom TWR Féquence 118 MHZ

 SIDA DE NAVIGATION
Type VOR-DME Nom Dolsko Féquence 112700 KHZ
Type NDB Nom Dolsko Féquence 328 KHZ
Type NDB Nom Ljubljana Féquence 296 KHZ



Powered by Virtual Airlines Manager [v2.6.2]